sensor_id;sensor_type;location;lat;lon;timestamp;temperature;humidity
21163;DHT22;10739;52.198;20.908;2022-10-15T00:01:11;8.80;99.90
21163;DHT22;10739;52.198;20.908;2022-10-15T00:03:40;8.80;99.90
21163;DHT22;10739;52.198;20.908;2022-10-15T00:06:09;8.70;99.90
21163;DHT22;10739;52.198;20.908;2022-10-15T00:08:38;8.70;99.90
21163;DHT22;10739;52.198;20.908;2022-10-15T00:11:11;8.70;99.90
21163;DHT22;10739;52.198;20.908;2022-10-15T00:13:42;8.70;99.90
21163;DHT22;10739;52.198;20.908;2022-10-15T00:16:12;8.60;99.90
21163;DHT22;10739;52.198;20.908;2022-10-15T00:18:41;8.60;99.90
21163;DHT22;10739;52.198;20.908;2022-10-15T00:21:09;8.60;99.90
21163;DHT22;10739;52.198;20.908;2022-10-15T00:23:37;8.60;99.90
21163;DHT22;10739;52.198;20.908;2022-10-15T00:26:09;8.50;99.90
21163;DHT22;10739;52.198;20.908;2022-10-15T00:28:37;8.50;99.90
21163;DHT22;10739;52.198;20.908;2022-10-15T00:31:10;8.60;99.90
21163;DHT22;10739;52.198;20.908;2022-10-15T00:33:39;8.50;99.90
21163;DHT22;10739;52.198;20.908;2022-10-15T00:36:09;8.50;99.90
21163;DHT22;10739;52.198;20.908;2022-10-15T00:38:38;8.50;99.90
21163;DHT22;10739;52.198;20.908;2022-10-15T00:41:06;8.50;99.90
21163;DHT22;10739;52.198;20.908;2022-10-15T00:43:52;8.50;99.90
21163;DHT22;10739;52.198;20.908;2022-10-15T00:46:37;8.50;99.90
21163;DHT22;10739;52.198;20.908;2022-10-15T00:49:19;8.50;99.90
21163;DHT22;10739;52.198;20.908;2022-10-15T00:51:57;8.50;99.90
21163;DHT22;10739;52.198;20.908;2022-10-15T00:54:30;8.50;99.90
21163;DHT22;10739;52.198;20.908;2022-10-15T00:57:01;8.50;99.90
21163;DHT22;10739;52.198;20.908;2022-10-15T00:59:28;8.50;99.90
21163;DHT22;10739;52.198;20.908;2022-10-15T01:01:59;8.40;99.90
21163;DHT22;10739;52.198;20.908;2022-10-15T01:04:26;8.40;99.90
21163;DHT22;10739;52.198;20.908;2022-10-15T01:06:54;8.40;99.90
21163;DHT22;10739;52.198;20.908;2022-10-15T01:09:20;8.40;99.90
21163;DHT22;10739;52.198;20.908;2022-10-15T01:11:48;8.30;99.90
21163;DHT22;10739;52.198;20.908;2022-10-15T01:15:00;8.30;99.90
21163;DHT22;10739;52.198;20.908;2022-10-15T01:17:56;8.30;99.90
21163;DHT22;10739;52.198;20.908;2022-10-15T01:34:06;8.20;99.90
21163;DHT22;10739;52.198;20.908;2022-10-15T01:37:03;8.20;99.90
21163;DHT22;10739;52.198;20.908;2022-10-15T01:39:43;8.10;99.90
21163;DHT22;10739;52.198;20.908;2022-10-15T01:42:44;8.10;99.90
21163;DHT22;10739;52.198;20.908;2022-10-15T01:45:21;8.10;99.90
21163;DHT22;10739;52.198;20.908;2022-10-15T01:47:58;8.10;99.90
21163;DHT22;10739;52.198;20.908;2022-10-15T01:50:32;8.10;99.90
21163;DHT22;10739;52.198;20.908;2022-10-15T01:53:01;8.00;99.90
21163;DHT22;10739;52.198;20.908;2022-10-15T01:55:29;8.00;99.90
21163;DHT22;10739;52.198;20.908;2022-10-15T01:57:57;8.00;99.90
21163;DHT22;10739;52.198;20.908;2022-10-15T02:00:25;8.00;99.90
21163;DHT22;10739;52.198;20.908;2022-10-15T02:02:51;8.00;99.90
21163;DHT22;10739;52.198;20.908;2022-10-15T02:05:23;8.00;99.90
21163;DHT22;10739;52.198;20.908;2022-10-15T02:11:08;8.00;99.90
21163;DHT22;10739;52.198;20.908;2022-10-15T02:13:59;8.00;99.90
21163;DHT22;10739;52.198;20.908;2022-10-15T02:16:43;7.90;99.90
21163;DHT22;10739;52.198;20.908;2022-10-15T02:19:24;7.90;99.90
21163;DHT22;10739;52.198;20.908;2022-10-15T02:24:55;7.80;99.90
21163;DHT22;10739;52.198;20.908;2022-10-15T02:27:27;7.90;99.90
21163;DHT22;10739;52.198;20.908;2022-10-15T02:29:56;7.90;99.90
21163;DHT22;10739;52.198;20.908;2022-10-15T02:32:27;7.90;99.90
21163;DHT22;10739;52.198;20.908;2022-10-15T02:34:57;7.90;99.90
21163;DHT22;10739;52.198;20.908;2022-10-15T02:37:27;7.90;99.90
21163;DHT22;10739;52.198;20.908;2022-10-15T02:39:55;8.00;99.90
21163;DHT22;10739;52.198;20.908;2022-10-15T02:42:21;8.00;99.90
21163;DHT22;10739;52.198;20.908;2022-10-15T02:44:48;8.00;99.90
21163;DHT22;10739;52.198;20.908;2022-10-15T02:47:14;8.00;99.90
21163;DHT22;10739;52.198;20.908;2022-10-15T02:49:41;8.00;99.90
21163;DHT22;10739;52.198;20.908;2022-10-15T02:52:07;8.00;99.90
21163;DHT22;10739;52.198;20.908;2022-10-15T02:54:33;8.00;99.90
21163;DHT22;10739;52.198;20.908;2022-10-15T02:57:00;8.00;99.90
21163;DHT22;10739;52.198;20.908;2022-10-15T02:59:26;8.00;99.90
21163;DHT22;10739;52.198;20.908;2022-10-15T03:01:52;8.00;99.90
21163;DHT22;10739;52.198;20.908;2022-10-15T03:04:18;8.00;99.90
21163;DHT22;10739;52.198;20.908;2022-10-15T03:06:44;8.00;99.90
21163;DHT22;10739;52.198;20.908;2022-10-15T03:09:11;8.10;99.90
21163;DHT22;10739;52.198;20.908;2022-10-15T03:11:38;8.00;99.90
21163;DHT22;10739;52.198;20.908;2022-10-15T03:14:04;7.90;99.90
21163;DHT22;10739;52.198;20.908;2022-10-15T03:16:30;7.90;99.90
21163;DHT22;10739;52.198;20.908;2022-10-15T03:18:57;7.90;99.90
21163;DHT22;10739;52.198;20.908;2022-10-15T03:21:22;7.90;99.90
21163;DHT22;10739;52.198;20.908;2022-10-15T03:23:49;7.90;99.90
21163;DHT22;10739;52.198;20.908;2022-10-15T03:26:15;7.90;99.90
21163;DHT22;10739;52.198;20.908;2022-10-15T03:28:41;7.80;99.90
21163;DHT22;10739;52.198;20.908;2022-10-15T03:31:07;7.80;99.90
21163;DHT22;10739;52.198;20.908;2022-10-15T03:33:34;7.90;99.90
21163;DHT22;10739;52.198;20.908;2022-10-15T03:36:00;7.80;99.90
21163;DHT22;10739;52.198;20.908;2022-10-15T03:38:26;7.80;99.90
21163;DHT22;10739;52.198;20.908;2022-10-15T03:40:52;7.80;99.90
21163;DHT22;10739;52.198;20.908;2022-10-15T03:43:18;7.70;99.90
21163;DHT22;10739;52.198;20.908;2022-10-15T03:45:44;7.70;99.90
21163;DHT22;10739;52.198;20.908;2022-10-15T03:48:10;7.80;99.90
21163;DHT22;10739;52.198;20.908;2022-10-15T03:50:37;7.80;99.90
21163;DHT22;10739;52.198;20.908;2022-10-15T03:53:04;7.80;99.90
21163;DHT22;10739;52.198;20.908;2022-10-15T03:55:30;7.80;99.90
21163;DHT22;10739;52.198;20.908;2022-10-15T03:57:56;7.80;99.90
21163;DHT22;10739;52.198;20.908;2022-10-15T04:00:23;7.80;99.90
21163;DHT22;10739;52.198;20.908;2022-10-15T04:02:49;7.80;99.90
21163;DHT22;10739;52.198;20.908;2022-10-15T04:05:15;7.90;99.90
21163;DHT22;10739;52.198;20.908;2022-10-15T04:07:41;7.90;99.90
21163;DHT22;10739;52.198;20.908;2022-10-15T04:10:08;7.90;99.90
21163;DHT22;10739;52.198;20.908;2022-10-15T04:12:34;8.00;99.90
21163;DHT22;10739;52.198;20.908;2022-10-15T04:15:00;8.00;99.90
21163;DHT22;10739;52.198;20.908;2022-10-15T04:17:27;8.00;99.90
21163;DHT22;10739;52.198;20.908;2022-10-15T04:19:53;8.00;99.90
21163;DHT22;10739;52.198;20.908;2022-10-15T04:22:19;8.00;99.90
21163;DHT22;10739;52.198;20.908;2022-10-15T04:24:45;8.00;99.90
21163;DHT22;10739;52.198;20.908;2022-10-15T04:27:12;8.00;99.90
21163;DHT22;10739;52.198;20.908;2022-10-15T04:29:39;8.00;99.90
21163;DHT22;10739;52.198;20.908;2022-10-15T04:32:05;8.00;99.90
21163;DHT22;10739;52.198;20.908;2022-10-15T04:34:31;8.00;99.90
21163;DHT22;10739;52.198;20.908;2022-10-15T04:36:58;8.00;99.90
21163;DHT22;10739;52.198;20.908;2022-10-15T04:39:24;8.10;99.90
21163;DHT22;10739;52.198;20.908;2022-10-15T04:41:50;8.10;99.90
21163;DHT22;10739;52.198;20.908;2022-10-15T04:44:16;8.00;99.90
21163;DHT22;10739;52.198;20.908;2022-10-15T04:46:43;8.10;99.90
21163;DHT22;10739;52.198;20.908;2022-10-15T04:49:09;8.10;99.90
21163;DHT22;10739;52.198;20.908;2022-10-15T04:51:35;8.10;99.90
21163;DHT22;10739;52.198;20.908;2022-10-15T04:54:02;8.10;99.90
21163;DHT22;10739;52.198;20.908;2022-10-15T04:56:29;8.10;99.90
21163;DHT22;10739;52.198;20.908;2022-10-15T04:58:55;8.10;99.90
21163;DHT22;10739;52.198;20.908;2022-10-15T05:01:22;8.10;99.90
21163;DHT22;10739;52.198;20.908;2022-10-15T05:03:48;8.10;99.90
21163;DHT22;10739;52.198;20.908;2022-10-15T05:06:19;8.10;99.90
21163;DHT22;10739;52.198;20.908;2022-10-15T05:08:48;8.10;99.90
21163;DHT22;10739;52.198;20.908;2022-10-15T05:11:20;8.20;99.90
21163;DHT22;10739;52.198;20.908;2022-10-15T05:13:48;8.20;99.90
21163;DHT22;10739;52.198;20.908;2022-10-15T05:16:17;8.20;99.90
21163;DHT22;10739;52.198;20.908;2022-10-15T05:18:47;8.20;99.90
21163;DHT22;10739;52.198;20.908;2022-10-15T05:21:18;8.20;99.90
21163;DHT22;10739;52.198;20.908;2022-10-15T05:23:44;8.20;99.90
21163;DHT22;10739;52.198;20.908;2022-10-15T05:26:14;8.20;99.90
21163;DHT22;10739;52.198;20.908;2022-10-15T05:28:43;8.20;99.90
21163;DHT22;10739;52.198;20.908;2022-10-15T05:31:11;8.30;99.90
21163;DHT22;10739;52.198;20.908;2022-10-15T05:33:40;8.30;99.90
21163;DHT22;10739;52.198;20.908;2022-10-15T05:36:27;8.30;99.90
21163;DHT22;10739;52.198;20.908;2022-10-15T05:39:00;8.30;99.90
21163;DHT22;10739;52.198;20.908;2022-10-15T05:41:28;8.40;99.90
21163;DHT22;10739;52.198;20.908;2022-10-15T05:43:55;8.40;99.90
21163;DHT22;10739;52.198;20.908;2022-10-15T05:46:23;8.50;99.90
21163;DHT22;10739;52.198;20.908;2022-10-15T05:48:54;8.50;99.90
21163;DHT22;10739;52.198;20.908;2022-10-15T05:51:22;8.60;99.90
21163;DHT22;10739;52.198;20.908;2022-10-15T05:53:56;8.70;99.90
21163;DHT22;10739;52.198;20.908;2022-10-15T05:56:26;8.70;99.90
21163;DHT22;10739;52.198;20.908;2022-10-15T05:58:53;8.80;99.90
21163;DHT22;10739;52.198;20.908;2022-10-15T06:01:20;8.90;99.90
21163;DHT22;10739;52.198;20.908;2022-10-15T06:03:46;8.90;99.90
21163;DHT22;10739;52.198;20.908;2022-10-15T06:06:14;9.00;99.90
21163;DHT22;10739;52.198;20.908;2022-10-15T06:08:46;9.00;99.90
21163;DHT22;10739;52.198;20.908;2022-10-15T06:11:12;9.10;99.90
21163;DHT22;10739;52.198;20.908;2022-10-15T06:13:40;9.20;99.90
21163;DHT22;10739;52.198;20.908;2022-10-15T06:16:09;9.20;99.90
21163;DHT22;10739;52.198;20.908;2022-10-15T06:18:36;9.40;99.90
21163;DHT22;10739;52.198;20.908;2022-10-15T06:21:04;9.40;99.90
21163;DHT22;10739;52.198;20.908;2022-10-15T06:23:31;9.50;99.90
21163;DHT22;10739;52.198;20.908;2022-10-15T06:26:07;9.60;99.90
21163;DHT22;10739;52.198;20.908;2022-10-15T06:28:35;9.70;99.90
21163;DHT22;10739;52.198;20.908;2022-10-15T06:31:04;9.90;99.90
21163;DHT22;10739;52.198;20.908;2022-10-15T06:33:32;10.00;99.90
21163;DHT22;10739;52.198;20.908;2022-10-15T06:36:07;10.10;99.90
21163;DHT22;10739;52.198;20.908;2022-10-15T06:38:35;10.20;99.90
21163;DHT22;10739;52.198;20.908;2022-10-15T06:41:06;10.30;99.90
21163;DHT22;10739;52.198;20.908;2022-10-15T06:43:32;10.40;99.90
21163;DHT22;10739;52.198;20.908;2022-10-15T06:45:59;10.40;99.90
21163;DHT22;10739;52.198;20.908;2022-10-15T06:48:26;10.50;99.90
21163;DHT22;10739;52.198;20.908;2022-10-15T06:50:52;10.60;99.90
21163;DHT22;10739;52.198;20.908;2022-10-15T06:53:18;10.70;99.90
21163;DHT22;10739;52.198;20.908;2022-10-15T06:55:44;10.70;99.90
21163;DHT22;10739;52.198;20.908;2022-10-15T06:58:11;10.80;99.90
21163;DHT22;10739;52.198;20.908;2022-10-15T07:00:37;10.80;99.90
21163;DHT22;10739;52.198;20.908;2022-10-15T07:03:04;10.90;99.90
21163;DHT22;10739;52.198;20.908;2022-10-15T07:05:32;10.90;99.90
21163;DHT22;10739;52.198;20.908;2022-10-15T07:07:59;11.00;99.90
21163;DHT22;10739;52.198;20.908;2022-10-15T07:10:26;11.00;99.90
21163;DHT22;10739;52.198;20.908;2022-10-15T07:12:53;11.10;99.90
21163;DHT22;10739;52.198;20.908;2022-10-15T07:15:20;11.20;99.90
21163;DHT22;10739;52.198;20.908;2022-10-15T07:17:52;11.30;99.90
21163;DHT22;10739;52.198;20.908;2022-10-15T07:20:29;11.40;99.90
21163;DHT22;10739;52.198;20.908;2022-10-15T07:23:00;11.70;99.90
21163;DHT22;10739;52.198;20.908;2022-10-15T07:25:28;12.00;99.90
21163;DHT22;10739;52.198;20.908;2022-10-15T07:27:56;12.40;99.90
21163;DHT22;10739;52.198;20.908;2022-10-15T07:30:23;12.70;99.90
21163;DHT22;10739;52.198;20.908;2022-10-15T07:32:58;12.70;99.90
21163;DHT22;10739;52.198;20.908;2022-10-15T07:35:25;12.40;99.90
21163;DHT22;10739;52.198;20.908;2022-10-15T07:37:52;12.30;99.90
21163;DHT22;10739;52.198;20.908;2022-10-15T07:40:19;12.10;99.90
21163;DHT22;10739;52.198;20.908;2022-10-15T07:43:12;12.00;99.90
21163;DHT22;10739;52.198;20.908;2022-10-15T07:45:38;12.00;99.90
21163;DHT22;10739;52.198;20.908;2022-10-15T07:48:05;12.10;99.90
21163;DHT22;10739;52.198;20.908;2022-10-15T07:50:31;12.10;99.90
21163;DHT22;10739;52.198;20.908;2022-10-15T07:52:57;12.10;99.90
21163;DHT22;10739;52.198;20.908;2022-10-15T07:55:23;12.30;99.90
21163;DHT22;10739;52.198;20.908;2022-10-15T07:57:49;12.40;99.90
21163;DHT22;10739;52.198;20.908;2022-10-15T08:00:15;12.70;99.90
21163;DHT22;10739;52.198;20.908;2022-10-15T08:02:42;12.90;99.90
21163;DHT22;10739;52.198;20.908;2022-10-15T08:05:08;13.30;99.90
21163;DHT22;10739;52.198;20.908;2022-10-15T08:07:34;13.70;99.90
21163;DHT22;10739;52.198;20.908;2022-10-15T08:10:01;14.10;99.90
21163;DHT22;10739;52.198;20.908;2022-10-15T08:12:27;14.60;99.90
21163;DHT22;10739;52.198;20.908;2022-10-15T08:14:53;14.80;99.90
21163;DHT22;10739;52.198;20.908;2022-10-15T08:17:19;15.30;99.90
21163;DHT22;10739;52.198;20.908;2022-10-15T08:19:46;15.90;99.90
21163;DHT22;10739;52.198;20.908;2022-10-15T08:22:12;16.20;99.90
21163;DHT22;10739;52.198;20.908;2022-10-15T08:24:38;16.30;99.90
21163;DHT22;10739;52.198;20.908;2022-10-15T08:27:05;16.40;99.90
21163;DHT22;10739;52.198;20.908;2022-10-15T08:29:31;16.40;99.90
21163;DHT22;10739;52.198;20.908;2022-10-15T08:31:57;16.20;99.90
21163;DHT22;10739;52.198;20.908;2022-10-15T08:34:23;15.80;99.90
21163;DHT22;10739;52.198;20.908;2022-10-15T08:36:49;16.00;99.90
21163;DHT22;10739;52.198;20.908;2022-10-15T08:39:16;16.50;99.90
21163;DHT22;10739;52.198;20.908;2022-10-15T08:44:35;17.10;99.90
21163;DHT22;10739;52.198;20.908;2022-10-15T08:47:24;17.20;99.90
21163;DHT22;10739;52.198;20.908;2022-10-15T08:49:57;17.50;99.90
21163;DHT22;10739;52.198;20.908;2022-10-15T08:55:18;16.80;99.90
21163;DHT22;10739;52.198;20.908;2022-10-15T08:58:03;16.60;99.90
21163;DHT22;10739;52.198;20.908;2022-10-15T09:00:51;16.20;99.90
21163;DHT22;10739;52.198;20.908;2022-10-15T09:06:12;16.40;99.90
21163;DHT22;10739;52.198;20.908;2022-10-15T09:11:22;16.10;99.90
21163;DHT22;10739;52.198;20.908;2022-10-15T09:14:06;15.90;99.90
21163;DHT22;10739;52.198;20.908;2022-10-15T09:16:38;16.10;99.90
21163;DHT22;10739;52.198;20.908;2022-10-15T09:19:13;16.10;99.90
21163;DHT22;10739;52.198;20.908;2022-10-15T09:21:50;16.00;99.90
21163;DHT22;10739;52.198;20.908;2022-10-15T09:24:22;15.80;99.90
21163;DHT22;10739;52.198;20.908;2022-10-15T09:26:57;15.70;99.90
21163;DHT22;10739;52.198;20.908;2022-10-15T09:29:52;15.50;99.90
21163;DHT22;10739;52.198;20.908;2022-10-15T09:38:28;15.60;99.90
21163;DHT22;10739;52.198;20.908;2022-10-15T09:44:14;15.70;99.90
21163;DHT22;10739;52.198;20.908;2022-10-15T09:46:47;15.80;99.90
21163;DHT22;10739;52.198;20.908;2022-10-15T09:55:32;15.80;99.90
21163;DHT22;10739;52.198;20.908;2022-10-15T09:58:26;15.90;99.90
21163;DHT22;10739;52.198;20.908;2022-10-15T10:01:05;15.80;99.90
21163;DHT22;10739;52.198;20.908;2022-10-15T10:03:35;15.80;99.90
21163;DHT22;10739;52.198;20.908;2022-10-15T10:06:20;15.80;99.90
21163;DHT22;10739;52.198;20.908;2022-10-15T10:08:53;15.90;99.90
21163;DHT22;10739;52.198;20.908;2022-10-15T10:11:22;16.00;99.90
21163;DHT22;10739;52.198;20.908;2022-10-15T10:13:54;16.00;99.90
21163;DHT22;10739;52.198;20.908;2022-10-15T10:16:24;16.20;99.90
21163;DHT22;10739;52.198;20.908;2022-10-15T10:19:20;16.30;99.90
21163;DHT22;10739;52.198;20.908;2022-10-15T10:21:46;16.40;99.90
21163;DHT22;10739;52.198;20.908;2022-10-15T10:24:28;16.50;99.90
21163;DHT22;10739;52.198;20.908;2022-10-15T10:26:57;16.60;99.90
21163;DHT22;10739;52.198;20.908;2022-10-15T10:29:24;16.80;99.90
21163;DHT22;10739;52.198;20.908;2022-10-15T10:31:52;16.70;99.90
21163;DHT22;10739;52.198;20.908;2022-10-15T10:34:26;16.80;99.90
21163;DHT22;10739;52.198;20.908;2022-10-15T10:36:55;16.80;99.90
21163;DHT22;10739;52.198;20.908;2022-10-15T10:39:30;16.70;99.90
21163;DHT22;10739;52.198;20.908;2022-10-15T10:42:01;16.80;99.90
21163;DHT22;10739;52.198;20.908;2022-10-15T10:44:40;16.80;99.90
21163;DHT22;10739;52.198;20.908;2022-10-15T10:47:16;16.80;99.90
21163;DHT22;10739;52.198;20.908;2022-10-15T10:49:46;16.90;99.90
21163;DHT22;10739;52.198;20.908;2022-10-15T10:52:22;16.90;99.90
21163;DHT22;10739;52.198;20.908;2022-10-15T11:00:23;16.90;99.90
21163;DHT22;10739;52.198;20.908;2022-10-15T11:03:16;16.90;99.90
21163;DHT22;10739;52.198;20.908;2022-10-15T11:05:49;17.00;99.90
21163;DHT22;10739;52.198;20.908;2022-10-15T11:12:06;17.10;99.90
21163;DHT22;10739;52.198;20.908;2022-10-15T11:14:54;17.20;99.90
21163;DHT22;10739;52.198;20.908;2022-10-15T11:23:21;17.30;99.90
21163;DHT22;10739;52.198;20.908;2022-10-15T11:32:37;17.50;99.90
21163;DHT22;10739;52.198;20.908;2022-10-15T11:41:24;17.60;99.90
21163;DHT22;10739;52.198;20.908;2022-10-15T11:55:49;17.60;99.90
21163;DHT22;10739;52.198;20.908;2022-10-15T11:58:30;17.60;99.90
21163;DHT22;10739;52.198;20.908;2022-10-15T12:03:56;17.60;99.90
21163;DHT22;10739;52.198;20.908;2022-10-15T12:06:30;17.50;99.90
21163;DHT22;10739;52.198;20.908;2022-10-15T12:09:02;17.40;99.90
21163;DHT22;10739;52.198;20.908;2022-10-15T12:11:47;17.50;99.90
21163;DHT22;10739;52.198;20.908;2022-10-15T12:17:35;17.50;99.90
21163;DHT22;10739;52.198;20.908;2022-10-15T12:20:15;17.60;99.90
21163;DHT22;10739;52.198;20.908;2022-10-15T12:30:34;17.70;99.90
21163;DHT22;10739;52.198;20.908;2022-10-15T12:36:06;17.60;99.90
21163;DHT22;10739;52.198;20.908;2022-10-15T12:39:20;17.60;99.90
21163;DHT22;10739;52.198;20.908;2022-10-15T12:41:49;17.60;99.90
21163;DHT22;10739;52.198;20.908;2022-10-15T12:46:57;17.60;99.90
21163;DHT22;10739;52.198;20.908;2022-10-15T12:51:58;17.60;99.90
21163;DHT22;10739;52.198;20.908;2022-10-15T12:54:39;17.70;99.90
21163;DHT22;10739;52.198;20.908;2022-10-15T13:00:26;17.80;99.90
21163;DHT22;10739;52.198;20.908;2022-10-15T13:02:53;17.80;99.90
21163;DHT22;10739;52.198;20.908;2022-10-15T13:05:29;17.80;99.90
21163;DHT22;10739;52.198;20.908;2022-10-15T13:07:59;17.80;99.90
21163;DHT22;10739;52.198;20.908;2022-10-15T13:10:33;17.80;99.90
21163;DHT22;10739;52.198;20.908;2022-10-15T13:13:09;17.80;99.90
21163;DHT22;10739;52.198;20.908;2022-10-15T13:15:40;17.70;99.90
21163;DHT22;10739;52.198;20.908;2022-10-15T13:18:10;17.70;99.90
21163;DHT22;10739;52.198;20.908;2022-10-15T13:20:41;17.80;99.90
21163;DHT22;10739;52.198;20.908;2022-10-15T13:23:21;17.90;99.90
21163;DHT22;10739;52.198;20.908;2022-10-15T13:26:20;17.90;99.90
21163;DHT22;10739;52.198;20.908;2022-10-15T13:28:50;17.90;99.90
21163;DHT22;10739;52.198;20.908;2022-10-15T13:31:23;17.90;99.90
21163;DHT22;10739;52.198;20.908;2022-10-15T13:33:54;17.80;99.90
21163;DHT22;10739;52.198;20.908;2022-10-15T13:36:29;17.80;99.90
21163;DHT22;10739;52.198;20.908;2022-10-15T13:39:19;17.70;99.90
21163;DHT22;10739;52.198;20.908;2022-10-15T13:42:06;17.60;99.90
21163;DHT22;10739;52.198;20.908;2022-10-15T13:44:53;17.60;99.90
21163;DHT22;10739;52.198;20.908;2022-10-15T13:47:49;17.50;99.90
21163;DHT22;10739;52.198;20.908;2022-10-15T13:53:00;17.50;99.90
21163;DHT22;10739;52.198;20.908;2022-10-15T13:55:31;17.40;99.90
21163;DHT22;10739;52.198;20.908;2022-10-15T13:58:45;17.40;99.90
21163;DHT22;10739;52.198;20.908;2022-10-15T14:01:00;17.30;99.90
21163;DHT22;10739;52.198;20.908;2022-10-15T14:03:28;17.30;99.90
21163;DHT22;10739;52.198;20.908;2022-10-15T14:08:44;17.30;99.90
21163;DHT22;10739;52.198;20.908;2022-10-15T14:11:15;17.30;99.90
21163;DHT22;10739;52.198;20.908;2022-10-15T14:13:49;17.20;99.90
21163;DHT22;10739;52.198;20.908;2022-10-15T14:16:21;17.20;99.90
21163;DHT22;10739;52.198;20.908;2022-10-15T14:21:29;17.30;99.90
21163;DHT22;10739;52.198;20.908;2022-10-15T14:24:13;17.20;99.90
21163;DHT22;10739;52.198;20.908;2022-10-15T14:26:53;17.20;99.90
21163;DHT22;10739;52.198;20.908;2022-10-15T14:29:28;17.20;99.90
21163;DHT22;10739;52.198;20.908;2022-10-15T14:32:02;17.20;99.90
21163;DHT22;10739;52.198;20.908;2022-10-15T14:34:48;17.20;99.90
21163;DHT22;10739;52.198;20.908;2022-10-15T14:42:59;17.20;99.90
21163;DHT22;10739;52.198;20.908;2022-10-15T14:45:34;17.20;99.90
21163;DHT22;10739;52.198;20.908;2022-10-15T14:48:10;17.20;99.90
21163;DHT22;10739;52.198;20.908;2022-10-15T14:50:43;17.20;99.90
21163;DHT22;10739;52.198;20.908;2022-10-15T14:53:17;17.10;99.90
21163;DHT22;10739;52.198;20.908;2022-10-15T14:55:51;17.00;99.90
21163;DHT22;10739;52.198;20.908;2022-10-15T14:58:22;17.10;99.90
21163;DHT22;10739;52.198;20.908;2022-10-15T15:01:00;17.00;99.90
21163;DHT22;10739;52.198;20.908;2022-10-15T15:03:44;17.00;99.90
21163;DHT22;10739;52.198;20.908;2022-10-15T15:06:13;17.00;99.90
21163;DHT22;10739;52.198;20.908;2022-10-15T15:08:41;17.00;99.90
21163;DHT22;10739;52.198;20.908;2022-10-15T15:11:21;17.00;99.90
21163;DHT22;10739;52.198;20.908;2022-10-15T15:13:51;16.90;99.90
21163;DHT22;10739;52.198;20.908;2022-10-15T15:16:21;16.90;99.90
21163;DHT22;10739;52.198;20.908;2022-10-15T15:18:48;16.90;99.90
21163;DHT22;10739;52.198;20.908;2022-10-15T15:21:21;16.90;99.90
21163;DHT22;10739;52.198;20.908;2022-10-15T15:23:48;16.80;99.90
21163;DHT22;10739;52.198;20.908;2022-10-15T15:26:15;16.80;99.90
21163;DHT22;10739;52.198;20.908;2022-10-15T15:28:41;16.70;99.90
21163;DHT22;10739;52.198;20.908;2022-10-15T15:31:13;16.70;99.90
21163;DHT22;10739;52.198;20.908;2022-10-15T15:33:41;16.70;99.90
21163;DHT22;10739;52.198;20.908;2022-10-15T15:36:13;16.70;99.90
21163;DHT22;10739;52.198;20.908;2022-10-15T15:38:40;16.60;99.90
21163;DHT22;10739;52.198;20.908;2022-10-15T15:41:16;16.60;99.90
21163;DHT22;10739;52.198;20.908;2022-10-15T15:43:44;16.50;99.90
21163;DHT22;10739;52.198;20.908;2022-10-15T15:46:11;16.60;99.90
21163;DHT22;10739;52.198;20.908;2022-10-15T15:48:38;16.50;99.90
21163;DHT22;10739;52.198;20.908;2022-10-15T15:51:26;16.50;99.90
21163;DHT22;10739;52.198;20.908;2022-10-15T15:53:54;16.50;99.90
21163;DHT22;10739;52.198;20.908;2022-10-15T15:56:21;16.40;99.90
21163;DHT22;10739;52.198;20.908;2022-10-15T15:58:48;16.40;99.90
21163;DHT22;10739;52.198;20.908;2022-10-15T16:01:16;16.30;99.90
21163;DHT22;10739;52.198;20.908;2022-10-15T16:03:43;16.30;99.90
21163;DHT22;10739;52.198;20.908;2022-10-15T16:06:09;16.30;99.90
21163;DHT22;10739;52.198;20.908;2022-10-15T16:08:36;16.20;99.90
21163;DHT22;10739;52.198;20.908;2022-10-15T16:11:05;16.30;99.90
21163;DHT22;10739;52.198;20.908;2022-10-15T16:13:31;16.20;99.90
21163;DHT22;10739;52.198;20.908;2022-10-15T16:15:58;16.20;99.90
21163;DHT22;10739;52.198;20.908;2022-10-15T16:18:24;16.20;99.90
21163;DHT22;10739;52.198;20.908;2022-10-15T16:20:51;16.10;99.90
21163;DHT22;10739;52.198;20.908;2022-10-15T16:23:17;16.10;99.90
21163;DHT22;10739;52.198;20.908;2022-10-15T16:25:43;16.10;99.90
21163;DHT22;10739;52.198;20.908;2022-10-15T16:28:10;16.10;99.90
21163;DHT22;10739;52.198;20.908;2022-10-15T16:30:36;16.00;99.90
21163;DHT22;10739;52.198;20.908;2022-10-15T16:33:02;16.00;99.90
21163;DHT22;10739;52.198;20.908;2022-10-15T16:35:28;16.00;99.90
21163;DHT22;10739;52.198;20.908;2022-10-15T16:37:54;16.00;99.90
21163;DHT22;10739;52.198;20.908;2022-10-15T16:40:21;16.10;99.90
21163;DHT22;10739;52.198;20.908;2022-10-15T16:42:47;16.10;99.90
21163;DHT22;10739;52.198;20.908;2022-10-15T16:45:13;16.10;99.90
21163;DHT22;10739;52.198;20.908;2022-10-15T16:47:39;16.00;99.90
21163;DHT22;10739;52.198;20.908;2022-10-15T16:50:06;15.90;99.90
21163;DHT22;10739;52.198;20.908;2022-10-15T16:52:33;15.80;99.90
21163;DHT22;10739;52.198;20.908;2022-10-15T16:54:59;15.80;99.90
21163;DHT22;10739;52.198;20.908;2022-10-15T16:57:25;15.70;99.90
21163;DHT22;10739;52.198;20.908;2022-10-15T16:59:52;15.60;99.90
21163;DHT22;10739;52.198;20.908;2022-10-15T17:02:20;15.50;99.90
21163;DHT22;10739;52.198;20.908;2022-10-15T17:04:46;15.30;99.90
21163;DHT22;10739;52.198;20.908;2022-10-15T17:07:12;15.20;99.90
21163;DHT22;10739;52.198;20.908;2022-10-15T17:09:39;15.10;99.90
21163;DHT22;10739;52.198;20.908;2022-10-15T17:12:05;15.10;99.90
21163;DHT22;10739;52.198;20.908;2022-10-15T17:14:31;15.10;99.90
21163;DHT22;10739;52.198;20.908;2022-10-15T17:16:58;15.10;99.90
21163;DHT22;10739;52.198;20.908;2022-10-15T17:19:25;15.00;99.90
21163;DHT22;10739;52.198;20.908;2022-10-15T17:21:51;15.00;99.90
21163;DHT22;10739;52.198;20.908;2022-10-15T17:24:20;14.90;99.90
21163;DHT22;10739;52.198;20.908;2022-10-15T17:26:47;14.90;99.90
21163;DHT22;10739;52.198;20.908;2022-10-15T17:29:19;14.80;99.90
21163;DHT22;10739;52.198;20.908;2022-10-15T17:31:48;14.80;99.90
21163;DHT22;10739;52.198;20.908;2022-10-15T17:34:15;14.80;99.90
21163;DHT22;10739;52.198;20.908;2022-10-15T17:36:45;14.80;99.90
21163;DHT22;10739;52.198;20.908;2022-10-15T17:39:15;14.80;99.90
21163;DHT22;10739;52.198;20.908;2022-10-15T17:41:45;14.80;99.90
21163;DHT22;10739;52.198;20.908;2022-10-15T17:44:11;14.80;99.90
21163;DHT22;10739;52.198;20.908;2022-10-15T17:46:38;14.70;99.90
21163;DHT22;10739;52.198;20.908;2022-10-15T17:49:05;14.70;99.90
21163;DHT22;10739;52.198;20.908;2022-10-15T17:51:34;14.70;99.90